createdAt,value
2019-01-17T00:01:03.276Z,7.43
2019-01-17T00:03:40.410Z,7.33
2019-01-17T00:06:25.838Z,7.70
2019-01-17T00:09:18.184Z,8.33
2019-01-17T00:11:58.300Z,8.47
2019-01-17T00:14:43.822Z,7.97
2019-01-17T00:17:36.779Z,7.87
2019-01-17T00:20:23.026Z,7.47
2019-01-17T00:23:08.198Z,6.90
2019-01-17T00:25:53.725Z,7.70
2019-01-17T00:28:46.483Z,7.07
2019-01-17T00:31:27.221Z,8.20
2019-01-17T00:34:19.565Z,8.07
2019-01-17T00:37:09.774Z,7.63
2019-01-17T00:39:59.357Z,8.23
2019-01-17T00:42:35.225Z,7.60
2019-01-17T00:45:16.067Z,7.10
2019-01-17T00:48:11.598Z,7.40
2019-01-17T00:50:56.748Z,7.07
2019-01-17T00:53:32.466Z,6.93
2019-01-17T00:56:24.858Z,7.23
2019-01-17T00:59:10.097Z,8.43
2019-01-17T01:01:55.542Z,8.40
2019-01-17T01:04:38.358Z,8.97
2019-01-17T01:07:31.159Z,11.17
2019-01-17T01:10:14.907Z,11.07
2019-01-17T01:12:48.453Z,10.43
2019-01-17T01:15:41.404Z,12.13
2019-01-17T01:18:26.584Z,12.67
2019-01-17T01:21:04.812Z,13.90
2019-01-17T01:23:48.253Z,12.93
2019-01-17T01:26:33.522Z,11.33
2019-01-17T01:29:26.391Z,10.30
2019-01-17T01:32:12.246Z,11.57
2019-01-17T01:35:02.056Z,11.73
2019-01-17T01:38:07.025Z,12.50
2019-01-17T01:41:00.678Z,11.00
2019-01-17T01:43:40.566Z,10.50
2019-01-17T01:46:33.203Z,11.33
2019-01-17T01:49:28.850Z,11.13
2019-01-17T01:52:22.654Z,11.10
2019-01-17T01:54:49.926Z,10.37
2019-01-17T01:57:17.565Z,11.07
2019-01-17T01:59:44.844Z,11.20
2019-01-17T02:02:12.089Z,11.23
2019-01-17T02:04:39.346Z,11.87
2019-01-17T02:07:06.595Z,10.93
2019-01-17T02:09:34.362Z,10.93
2019-01-17T02:12:01.634Z,11.97
2019-01-17T02:14:29.174Z,11.23
2019-01-17T02:16:56.529Z,10.43
2019-01-17T02:19:23.905Z,11.47
2019-01-17T02:21:51.070Z,10.60
2019-01-17T02:24:18.408Z,11.47
2019-01-17T02:26:45.938Z,10.10
2019-01-17T02:29:13.485Z,11.73
2019-01-17T02:31:40.731Z,11.13
2019-01-17T02:34:08.384Z,10.90
2019-01-17T02:36:35.641Z,11.20
2019-01-17T02:39:04.638Z,11.33
2019-01-17T02:41:32.183Z,10.03
2019-01-17T02:43:59.448Z,9.77
2019-01-17T02:46:26.958Z,9.63
2019-01-17T02:48:54.331Z,11.10
2019-01-17T02:51:21.574Z,10.23
2019-01-17T02:53:48.821Z,11.30
2019-01-17T02:56:16.081Z,11.27
2019-01-17T02:58:43.726Z,11.30
2019-01-17T03:01:11.048Z,9.80
2019-01-17T03:03:38.443Z,10.60
2019-01-17T03:06:05.796Z,11.07
2019-01-17T03:08:33.044Z,10.30
2019-01-17T03:11:00.286Z,12.00
2019-01-17T03:13:27.932Z,12.63
2019-01-17T03:15:55.287Z,12.07
2019-01-17T03:18:22.535Z,11.87
2019-01-17T03:20:49.814Z,13.20
2019-01-17T03:23:17.425Z,13.87
2019-01-17T03:25:44.687Z,13.37
2019-01-17T03:28:11.945Z,16.77
2019-01-17T03:30:39.202Z,14.33
2019-01-17T03:33:06.552Z,17.20
2019-01-17T03:35:34.184Z,17.20
2019-01-17T03:38:01.414Z,18.17
2019-01-17T03:40:29.007Z,20.30
2019-01-17T03:42:56.555Z,15.67
2019-01-17T03:45:23.900Z,18.57
2019-01-17T03:47:51.406Z,18.57
2019-01-17T03:50:18.658Z,22.23
2019-01-17T03:52:45.940Z,20.77
2019-01-17T03:55:14.683Z,18.77
2019-01-17T03:57:41.851Z,21.30
2019-01-17T04:00:10.897Z,21.93
2019-01-17T04:02:38.133Z,21.70
2019-01-17T04:05:05.911Z,21.30
2019-01-17T04:07:33.254Z,22.47
2019-01-17T04:10:00.861Z,21.27
2019-01-17T04:12:28.268Z,21.87
2019-01-17T04:14:55.808Z,24.37
2019-01-17T04:17:23.049Z,24.00
2019-01-17T04:19:50.342Z,23.03
2019-01-17T04:22:17.612Z,23.17
2019-01-17T04:24:44.950Z,19.23
2019-01-17T04:27:12.492Z,18.03
2019-01-17T04:29:39.727Z,17.63
2019-01-17T04:32:07.009Z,17.53
2019-01-17T04:34:34.361Z,17.67
2019-01-17T04:37:01.737Z,17.93
2019-01-17T04:39:29.286Z,16.80
2019-01-17T04:41:56.549Z,20.70
2019-01-17T04:44:24.080Z,19.23
2019-01-17T04:46:51.726Z,20.70
2019-01-17T04:49:18.973Z,18.57
2019-01-17T04:51:46.241Z,19.10
2019-01-17T04:54:13.780Z,20.13
2019-01-17T04:56:41.154Z,18.57
2019-01-17T04:59:08.503Z,18.77
2019-01-17T05:01:35.832Z,23.03
2019-01-17T05:04:03.194Z,20.07
2019-01-17T05:06:30.428Z,19.07
2019-01-17T05:08:57.685Z,17.53
2019-01-17T05:11:25.328Z,16.33
2019-01-17T05:13:52.570Z,18.83
2019-01-17T05:16:19.816Z,18.33
2019-01-17T05:18:47.170Z,20.67
2019-01-17T05:21:14.663Z,13.97
2019-01-17T05:23:41.931Z,16.10
2019-01-17T05:26:09.280Z,14.77
2019-01-17T05:28:36.562Z,14.50
2019-01-17T05:31:05.165Z,15.03
2019-01-17T05:33:32.924Z,13.80
2019-01-17T05:36:00.174Z,12.87
2019-01-17T05:38:27.517Z,12.73
2019-01-17T05:40:54.730Z,11.27
2019-01-17T05:43:22.019Z,11.10
2019-01-17T05:45:49.257Z,11.17
2019-01-17T05:48:16.540Z,12.10
2019-01-17T05:50:43.778Z,11.97
2019-01-17T05:53:11.024Z,11.53
2019-01-17T05:55:38.405Z,12.20
2019-01-17T05:58:05.985Z,12.67
2019-01-17T06:00:33.241Z,12.53
2019-01-17T06:03:00.511Z,11.53
2019-01-17T06:05:27.776Z,12.13
2019-01-17T06:07:55.026Z,12.80
2019-01-17T06:10:22.372Z,12.27
2019-01-17T06:12:50.232Z,11.07
2019-01-17T06:15:20.360Z,10.27
2019-01-17T06:17:47.502Z,10.50
2019-01-17T06:20:14.841Z,10.50
2019-01-17T06:22:43.494Z,10.70
2019-01-17T06:25:11.017Z,11.50
2019-01-17T06:27:38.301Z,11.47
2019-01-17T06:30:06.506Z,10.97
2019-01-17T06:32:33.758Z,10.53
2019-01-17T06:35:01.126Z,11.30
2019-01-17T06:37:28.519Z,11.37
2019-01-17T06:39:55.924Z,11.67
2019-01-17T06:42:23.160Z,10.47
2019-01-17T06:44:50.451Z,8.70
2019-01-17T06:47:17.793Z,10.23
2019-01-17T06:49:45.251Z,11.07
2019-01-17T06:52:12.635Z,11.47
2019-01-17T06:54:39.928Z,11.33
2019-01-17T06:57:07.476Z,11.90
2019-01-17T06:59:34.745Z,11.53
2019-01-17T07:02:01.987Z,10.73
2019-01-17T07:04:29.625Z,12.33
2019-01-17T07:06:56.983Z,10.17
2019-01-17T07:09:24.216Z,11.93
2019-01-17T07:11:51.456Z,11.23
2019-01-17T07:14:18.992Z,10.10
2019-01-17T07:16:46.345Z,10.73
2019-01-17T07:19:14.230Z,10.97
2019-01-17T07:21:41.499Z,8.90
2019-01-17T07:24:08.792Z,8.43
2019-01-17T07:26:36.411Z,7.93
2019-01-17T07:29:03.771Z,7.13
2019-01-17T07:31:31.414Z,7.50
2019-01-17T07:33:58.803Z,7.83
2019-01-17T07:36:26.152Z,7.97
2019-01-17T07:38:53.636Z,6.67
2019-01-17T07:41:21.003Z,6.13
2019-01-17T07:43:49.117Z,6.10
2019-01-17T07:46:16.382Z,5.47
2019-01-17T07:48:43.661Z,4.83
2019-01-17T07:51:10.947Z,4.60
2019-01-17T07:53:38.477Z,3.60
2019-01-17T07:56:05.817Z,3.20
2019-01-17T07:58:33.389Z,3.10
2019-01-17T08:01:00.642Z,2.70
2019-01-17T08:03:27.831Z,3.00
2019-01-17T08:05:55.188Z,2.37
2019-01-17T08:08:22.436Z,2.73
2019-01-17T08:10:49.688Z,2.53
2019-01-17T08:13:16.965Z,2.90
2019-01-17T08:15:44.309Z,2.67
2019-01-17T08:18:11.591Z,2.40
2019-01-17T08:20:38.843Z,2.20
2019-01-17T08:23:06.197Z,2.30
2019-01-17T08:25:33.609Z,2.10
2019-01-17T08:28:00.947Z,2.43
2019-01-17T08:30:28.581Z,2.10
2019-01-17T08:32:55.816Z,1.93
2019-01-17T08:35:23.079Z,2.77
2019-01-17T08:37:50.962Z,2.07
2019-01-17T08:40:22.658Z,2.30
2019-01-17T08:42:49.941Z,2.07
2019-01-17T08:45:17.527Z,1.83
2019-01-17T08:47:44.773Z,3.30
2019-01-17T08:50:12.304Z,3.00
2019-01-17T08:52:39.657Z,3.80
2019-01-17T08:55:07.440Z,4.33
2019-01-17T08:57:34.794Z,3.60
2019-01-17T09:00:02.315Z,5.10
2019-01-17T09:02:29.664Z,4.20
2019-01-17T09:04:57.190Z,4.53
2019-01-17T09:07:24.783Z,4.83
2019-01-17T09:09:52.058Z,5.27
2019-01-17T09:12:19.391Z,9.70
2019-01-17T09:14:46.662Z,7.87
2019-01-17T09:17:13.945Z,9.53
2019-01-17T09:19:41.506Z,10.00
2019-01-17T09:22:09.049Z,9.67
2019-01-17T09:24:36.421Z,8.43
2019-01-17T09:27:03.686Z,10.63
2019-01-17T09:29:30.942Z,8.87
2019-01-17T09:31:58.299Z,8.83
2019-01-17T09:34:25.666Z,9.47
2019-01-17T09:36:53.160Z,9.70
2019-01-17T09:39:20.428Z,8.77
2019-01-17T09:41:47.698Z,6.73
2019-01-17T09:44:14.943Z,5.70
2019-01-17T09:46:42.207Z,4.57
2019-01-17T09:49:09.470Z,3.70
2019-01-17T09:51:37.003Z,3.63
2019-01-17T09:54:04.436Z,3.60
2019-01-17T09:56:31.712Z,3.37
2019-01-17T09:58:59.076Z,3.40
2019-01-17T10:01:26.622Z,2.40
2019-01-17T10:03:54.317Z,2.87
2019-01-17T10:06:21.580Z,3.03
2019-01-17T10:08:48.862Z,3.37
2019-01-17T10:11:16.134Z,3.00
2019-01-17T10:13:43.370Z,3.90
2019-01-17T10:16:22.842Z,3.50
2019-01-17T10:19:08.264Z,2.73
2019-01-17T10:21:42.639Z,3.47
2019-01-17T10:24:20.043Z,3.80
2019-01-17T10:27:07.080Z,3.87
2019-01-17T10:29:42.902Z,4.47
2019-01-17T10:32:20.236Z,4.40
2019-01-17T10:34:55.692Z,4.93
2019-01-17T10:38:00.865Z,4.80
2019-01-17T10:40:47.626Z,5.07
2019-01-17T10:43:25.553Z,5.00
2019-01-17T10:45:59.443Z,4.90
2019-01-17T10:48:44.973Z,5.03
2019-01-17T10:51:38.246Z,4.80
2019-01-17T10:54:10.213Z,5.17
2019-01-17T10:56:57.338Z,4.60
2019-01-17T10:59:33.056Z,2.60
2019-01-17T11:02:22.860Z,1.63
2019-01-17T11:04:54.021Z,1.13
2019-01-17T11:07:31.603Z,0.60
2019-01-17T11:10:05.440Z,0.77
2019-01-17T11:12:58.482Z,1.10
2019-01-17T11:15:49.185Z,1.00
2019-01-17T11:18:48.395Z,0.90
2019-01-17T11:21:35.180Z,0.80
2019-01-17T11:24:14.943Z,1.10
2019-01-17T11:27:07.780Z,1.03
2019-01-17T11:29:57.441Z,1.10
2019-01-17T11:32:42.976Z,1.60
2019-01-17T11:35:23.908Z,1.33
2019-01-17T11:38:00.227Z,0.33
2019-01-17T11:40:33.816Z,1.17
2019-01-17T11:43:15.933Z,0.90
2019-01-17T11:46:00.167Z,0.87
2019-01-17T11:49:01.839Z,1.03
2019-01-17T11:51:51.614Z,1.00
2019-01-17T11:54:25.818Z,1.17
2019-01-17T11:57:24.551Z,0.90
2019-01-17T11:59:59.113Z,0.93
2019-01-17T12:02:51.662Z,0.70
2019-01-17T12:05:19.018Z,0.67
2019-01-17T12:07:46.379Z,0.80
2019-01-17T12:10:13.632Z,0.93
2019-01-17T12:12:41.276Z,0.73
2019-01-17T12:15:08.663Z,0.70
2019-01-17T12:17:35.938Z,1.10
2019-01-17T12:20:03.857Z,1.33
2019-01-17T12:22:31.470Z,1.27
2019-01-17T12:24:58.731Z,1.07
2019-01-17T12:27:26.061Z,1.37
2019-01-17T12:29:53.350Z,1.50
2019-01-17T12:32:20.978Z,1.10
2019-01-17T12:34:48.229Z,1.43
2019-01-17T12:37:15.488Z,1.37
2019-01-17T12:39:42.906Z,1.93
2019-01-17T12:42:10.253Z,1.53
2019-01-17T12:44:37.613Z,1.03
2019-01-17T12:47:04.991Z,0.77
2019-01-17T12:49:32.328Z,1.00
2019-01-17T12:51:59.583Z,1.20
2019-01-17T12:54:26.958Z,1.47
2019-01-17T12:56:54.345Z,1.57
2019-01-17T12:59:21.918Z,1.90
2019-01-17T13:01:49.279Z,1.33
2019-01-17T13:04:17.175Z,2.13
2019-01-17T13:06:44.424Z,1.40
2019-01-17T13:09:11.678Z,1.10
2019-01-17T13:11:39.036Z,2.03
2019-01-17T13:14:06.304Z,1.17
2019-01-17T13:16:33.561Z,1.43
2019-01-17T13:19:00.918Z,1.73
2019-01-17T13:21:28.193Z,1.17
2019-01-17T13:23:55.705Z,1.73
2019-01-17T13:26:23.038Z,1.63
2019-01-17T13:28:50.594Z,1.70
2019-01-17T13:31:18.155Z,1.20
2019-01-17T13:33:45.675Z,1.57
2019-01-17T13:36:12.926Z,1.13
2019-01-17T13:38:40.170Z,1.20
2019-01-17T13:41:07.948Z,2.13
2019-01-17T13:43:35.468Z,1.50
2019-01-17T13:46:03.203Z,1.60
2019-01-17T13:48:30.455Z,1.70
2019-01-17T13:50:57.745Z,1.77
2019-01-17T13:53:25.114Z,1.93
2019-01-17T13:55:52.395Z,1.80
2019-01-17T13:58:19.926Z,1.90
2019-01-17T14:00:47.294Z,1.97
2019-01-17T14:03:14.891Z,1.10
2019-01-17T14:05:42.236Z,2.93
2019-01-17T14:08:09.597Z,1.07
2019-01-17T14:10:37.267Z,1.87
2019-01-17T14:13:04.654Z,2.20
2019-01-17T14:15:32.212Z,2.83
2019-01-17T14:17:59.495Z,2.17
2019-01-17T14:20:26.847Z,1.47
2019-01-17T14:22:54.311Z,1.47
2019-01-17T14:25:21.605Z,2.30
2019-01-17T14:27:48.944Z,2.10
2019-01-17T14:30:17.682Z,1.80
2019-01-17T14:32:45.303Z,2.07
2019-01-17T14:35:12.908Z,2.77
2019-01-17T14:37:40.181Z,1.40
2019-01-17T14:40:07.731Z,2.33
2019-01-17T14:42:35.078Z,1.80
2019-01-17T14:45:02.635Z,1.87
2019-01-17T14:47:30.015Z,2.23
2019-01-17T14:49:57.293Z,2.30
2019-01-17T14:52:24.586Z,2.00
2019-01-17T14:54:51.841Z,2.63
2019-01-17T14:57:20.795Z,1.57
2019-01-17T14:59:48.348Z,1.80
2019-01-17T15:02:15.712Z,1.20
2019-01-17T15:04:43.074Z,1.90
2019-01-17T15:07:10.361Z,2.23
2019-01-17T15:09:37.708Z,2.27
2019-01-17T15:12:04.962Z,1.73
2019-01-17T15:14:32.230Z,2.43
2019-01-17T15:16:59.749Z,2.43
2019-01-17T15:19:27.138Z,3.13
2019-01-17T15:21:54.829Z,1.87
2019-01-17T15:24:22.066Z,2.20
2019-01-17T15:26:49.333Z,1.50
2019-01-17T15:29:16.896Z,1.67
2019-01-17T15:31:44.140Z,1.43
2019-01-17T15:34:11.392Z,2.03
2019-01-17T15:36:38.672Z,1.50
2019-01-17T15:39:07.190Z,2.80
2019-01-17T15:41:34.708Z,1.83
2019-01-17T15:44:01.956Z,2.00
2019-01-17T15:46:29.224Z,1.37
2019-01-17T15:48:56.535Z,1.67
2019-01-17T15:51:23.993Z,2.40
2019-01-17T15:53:51.415Z,1.53
2019-01-17T15:56:18.766Z,1.90
2019-01-17T15:58:46.143Z,1.33
2019-01-17T16:01:13.683Z,1.80
2019-01-17T16:03:41.196Z,1.73
2019-01-17T16:06:08.541Z,2.33
2019-01-17T16:08:36.079Z,1.37
2019-01-17T16:11:03.610Z,2.53
2019-01-17T16:13:30.864Z,1.90
2019-01-17T16:15:58.228Z,2.00
2019-01-17T16:18:25.523Z,1.87
2019-01-17T16:20:52.905Z,2.23
2019-01-17T16:23:20.293Z,1.83
2019-01-17T16:25:47.568Z,2.30
2019-01-17T16:28:14.878Z,2.37
2019-01-17T16:30:42.178Z,1.97
2019-01-17T16:33:09.465Z,1.53
2019-01-17T16:35:36.760Z,1.50
2019-01-17T16:38:04.245Z,1.50
2019-01-17T16:40:31.507Z,1.70
2019-01-17T16:42:58.865Z,1.43
2019-01-17T16:45:26.221Z,1.57
2019-01-17T16:47:53.601Z,1.70
2019-01-17T16:50:21.872Z,1.80
2019-01-17T16:52:49.481Z,1.83
2019-01-17T16:55:17.138Z,2.17
2019-01-17T16:57:48.842Z,2.57
2019-01-17T17:00:15.154Z,1.60
2019-01-17T17:02:42.784Z,2.43
2019-01-17T17:05:10.081Z,1.40
2019-01-17T17:07:37.349Z,1.90
2019-01-17T17:10:04.624Z,2.00
2019-01-17T17:12:32.041Z,2.20
2019-01-17T17:14:59.443Z,2.13
2019-01-17T17:17:26.723Z,3.93
2019-01-17T17:19:54.044Z,2.30
2019-01-17T17:22:21.904Z,2.53
2019-01-17T17:24:49.212Z,2.90
2019-01-17T17:27:16.820Z,1.90
2019-01-17T17:29:44.092Z,2.40
2019-01-17T17:32:11.449Z,2.20
2019-01-17T17:34:38.703Z,1.90
2019-01-17T17:37:06.341Z,1.33
2019-01-17T17:39:33.892Z,1.50
2019-01-17T17:42:01.136Z,1.53
2019-01-17T17:44:28.462Z,0.90
2019-01-17T17:46:55.713Z,0.67
2019-01-17T17:49:23.351Z,0.87
2019-01-17T17:51:51.049Z,0.97
2019-01-17T17:54:18.407Z,1.00
2019-01-17T17:56:45.645Z,1.33
2019-01-17T17:59:13.272Z,1.33
2019-01-17T18:01:42.759Z,1.47
2019-01-17T18:04:10.033Z,2.00
2019-01-17T18:06:37.409Z,3.20
2019-01-17T18:09:06.267Z,2.00
2019-01-17T18:11:33.647Z,1.40
2019-01-17T18:14:01.055Z,2.70
2019-01-17T18:16:28.449Z,0.60
2019-01-17T18:18:55.817Z,1.50
2019-01-17T18:21:23.471Z,1.00
2019-01-17T18:23:50.983Z,1.20
2019-01-17T18:26:18.520Z,0.80
2019-01-17T18:28:45.803Z,0.90
2019-01-17T18:31:13.175Z,1.20
2019-01-17T18:33:40.433Z,0.73
2019-01-17T18:36:07.712Z,1.10
2019-01-17T18:38:35.346Z,1.10
2019-01-17T18:41:02.722Z,1.37
2019-01-17T18:43:30.258Z,1.07
2019-01-17T18:45:57.691Z,1.60
2019-01-17T18:48:24.992Z,1.20
2019-01-17T18:50:53.209Z,0.90
2019-01-17T18:53:20.475Z,0.90
2019-01-17T18:55:47.738Z,0.93
2019-01-17T18:58:15.672Z,1.30
2019-01-17T19:00:43.197Z,2.33
2019-01-17T19:03:10.754Z,1.70
2019-01-17T19:05:38.149Z,2.50
2019-01-17T19:08:05.562Z,2.53
2019-01-17T19:10:32.924Z,2.43
2019-01-17T19:13:00.333Z,3.13
2019-01-17T19:15:28.619Z,2.77
2019-01-17T19:17:56.016Z,3.00
2019-01-17T19:20:23.655Z,2.93
2019-01-17T19:22:51.018Z,3.47
2019-01-17T19:25:18.583Z,2.40
2019-01-17T19:27:46.248Z,2.17
2019-01-17T19:30:15.116Z,2.63
2019-01-17T19:32:42.509Z,2.80
2019-01-17T19:35:09.892Z,1.93
2019-01-17T19:37:37.271Z,1.83
2019-01-17T19:40:05.085Z,1.97
2019-01-17T19:42:32.342Z,2.97
2019-01-17T19:44:59.701Z,1.53
2019-01-17T19:47:27.058Z,2.67
2019-01-17T19:49:54.345Z,1.57
2019-01-17T19:52:22.161Z,1.90
2019-01-17T19:54:49.509Z,1.37
2019-01-17T19:57:16.788Z,0.93
2019-01-17T19:59:44.139Z,1.43
2019-01-17T20:02:11.418Z,1.07
2019-01-17T20:04:41.923Z,0.77
2019-01-17T20:07:08.274Z,1.43
2019-01-17T20:09:35.532Z,1.23
2019-01-17T20:12:03.126Z,1.17
2019-01-17T20:14:30.507Z,1.27
2019-01-17T20:16:57.868Z,0.77
2019-01-17T20:19:25.398Z,1.97
2019-01-17T20:21:52.662Z,2.00
2019-01-17T20:24:20.022Z,2.40
2019-01-17T20:26:47.337Z,2.23
2019-01-17T20:29:14.632Z,1.80
2019-01-17T20:31:42.183Z,2.03
2019-01-17T20:34:09.543Z,1.87
2019-01-17T20:36:36.824Z,2.77
2019-01-17T20:39:05.399Z,1.90
2019-01-17T20:41:32.681Z,1.93
2019-01-17T20:43:59.945Z,2.17
2019-01-17T20:46:27.337Z,2.30
2019-01-17T20:48:54.740Z,2.70
2019-01-17T20:51:22.130Z,2.67
2019-01-17T20:53:49.399Z,2.57
2019-01-17T20:56:17.303Z,2.43
2019-01-17T20:58:44.659Z,2.57
2019-01-17T21:01:18.740Z,3.27
2019-01-17T21:03:46.010Z,3.30
2019-01-17T21:06:13.365Z,4.13
2019-01-17T21:08:40.631Z,3.20
2019-01-17T21:11:08.162Z,4.00
2019-01-17T21:13:35.471Z,4.10
2019-01-17T21:16:02.819Z,3.50
2019-01-17T21:18:30.072Z,3.17
2019-01-17T21:20:57.323Z,3.40
2019-01-17T21:23:24.590Z,2.97
2019-01-17T21:25:51.949Z,3.57
2019-01-17T21:28:19.304Z,5.43
2019-01-17T21:30:46.686Z,4.63
2019-01-17T21:33:14.082Z,4.93
2019-01-17T21:35:41.446Z,5.20
2019-01-17T21:38:08.801Z,4.87
2019-01-17T21:40:36.122Z,4.67
2019-01-17T21:43:03.568Z,3.93
2019-01-17T21:45:30.835Z,3.90
2019-01-17T21:47:58.114Z,4.00
2019-01-17T21:50:26.018Z,4.10
2019-01-17T21:52:53.611Z,3.23
2019-01-17T21:55:20.944Z,3.90
2019-01-17T21:57:48.211Z,4.37
2019-01-17T22:00:17.120Z,3.63
2019-01-17T22:02:44.391Z,4.43
2019-01-17T22:05:11.649Z,4.27
2019-01-17T22:07:39.018Z,3.33
2019-01-17T22:10:07.337Z,3.23
2019-01-17T22:12:34.572Z,2.40
2019-01-17T22:15:01.838Z,2.83
2019-01-17T22:17:29.118Z,2.10
2019-01-17T22:19:56.423Z,1.67
2019-01-17T22:22:24.310Z,2.30
2019-01-17T22:24:51.607Z,1.60
2019-01-17T22:27:18.984Z,1.60
2019-01-17T22:29:46.294Z,1.37
2019-01-17T22:32:13.565Z,1.67
2019-01-17T22:34:41.107Z,1.40
2019-01-17T22:37:08.387Z,2.10
2019-01-17T22:39:35.768Z,1.37
2019-01-17T22:42:03.123Z,1.97
2019-01-17T22:44:30.483Z,1.60
2019-01-17T22:46:57.750Z,1.60
2019-01-17T22:49:25.115Z,1.73
2019-01-17T22:51:52.664Z,2.53
2019-01-17T22:54:19.919Z,2.40
2019-01-17T22:56:47.252Z,1.87
2019-01-17T22:59:14.629Z,2.17
2019-01-17T23:01:41.887Z,2.00
2019-01-17T23:04:09.214Z,1.80
2019-01-17T23:06:36.496Z,1.57
2019-01-17T23:09:05.799Z,2.27
2019-01-17T23:11:33.031Z,1.90
2019-01-17T23:14:00.527Z,2.23
2019-01-17T23:16:27.795Z,2.23
2019-01-17T23:18:55.145Z,2.10
2019-01-17T23:21:22.391Z,2.10
2019-01-17T23:23:49.643Z,1.63
2019-01-17T23:26:17.206Z,1.87
2019-01-17T23:28:44.799Z,2.07
2019-01-17T23:31:12.064Z,1.63
2019-01-17T23:33:39.313Z,2.50
2019-01-17T23:36:06.589Z,2.80
2019-01-17T23:38:33.840Z,3.27
2019-01-17T23:41:01.106Z,2.73
2019-01-17T23:43:28.336Z,2.57
2019-01-17T23:45:55.631Z,4.07
2019-01-17T23:48:23.213Z,3.57
2019-01-17T23:50:50.464Z,3.77
2019-01-17T23:53:18.351Z,4.37
2019-01-17T23:55:45.613Z,3.60
2019-01-17T23:58:12.874Z,3.73
